sensor_id;sensor_type;location;lat;lon;timestamp;temperature;humidity
15426;DHT22;7812;50.072;7.036;2022-08-01T00:00:24;19.00;99.90
15426;DHT22;7812;50.072;7.036;2022-08-01T00:02:50;19.00;99.90
15426;DHT22;7812;50.072;7.036;2022-08-01T00:05:16;19.00;99.90
15426;DHT22;7812;50.072;7.036;2022-08-01T00:07:42;19.00;99.90
15426;DHT22;7812;50.072;7.036;2022-08-01T00:10:10;19.00;99.90
15426;DHT22;7812;50.072;7.036;2022-08-01T00:12:37;18.90;99.90
15426;DHT22;7812;50.072;7.036;2022-08-01T00:15:04;18.90;99.90
15426;DHT22;7812;50.072;7.036;2022-08-01T00:17:31;18.90;99.90
15426;DHT22;7812;50.072;7.036;2022-08-01T00:19:56;18.80;99.90
15426;DHT22;7812;50.072;7.036;2022-08-01T00:22:22;18.80;99.90
15426;DHT22;7812;50.072;7.036;2022-08-01T00:24:48;18.70;99.90
15426;DHT22;7812;50.072;7.036;2022-08-01T00:27:14;18.60;99.90
15426;DHT22;7812;50.072;7.036;2022-08-01T00:29:40;18.50;99.90
15426;DHT22;7812;50.072;7.036;2022-08-01T00:32:05;18.50;99.90
15426;DHT22;7812;50.072;7.036;2022-08-01T00:34:31;18.50;99.90
15426;DHT22;7812;50.072;7.036;2022-08-01T00:36:57;18.50;99.90
15426;DHT22;7812;50.072;7.036;2022-08-01T00:39:23;18.50;99.90
15426;DHT22;7812;50.072;7.036;2022-08-01T00:41:49;18.40;99.90
15426;DHT22;7812;50.072;7.036;2022-08-01T00:44:14;18.40;99.90
15426;DHT22;7812;50.072;7.036;2022-08-01T00:46:41;18.30;99.90
15426;DHT22;7812;50.072;7.036;2022-08-01T00:49:07;18.30;99.90
15426;DHT22;7812;50.072;7.036;2022-08-01T00:51:33;18.20;99.90
15426;DHT22;7812;50.072;7.036;2022-08-01T00:54:00;18.20;99.90
15426;DHT22;7812;50.072;7.036;2022-08-01T00:56:26;18.10;99.90
15426;DHT22;7812;50.072;7.036;2022-08-01T00:58:53;18.10;99.90
15426;DHT22;7812;50.072;7.036;2022-08-01T01:01:20;18.10;99.90
15426;DHT22;7812;50.072;7.036;2022-08-01T01:03:48;18.00;99.90
15426;DHT22;7812;50.072;7.036;2022-08-01T01:09:35;17.90;99.90
15426;DHT22;7812;50.072;7.036;2022-08-01T01:14:39;17.80;99.90
15426;DHT22;7812;50.072;7.036;2022-08-01T01:17:11;17.80;99.90
15426;DHT22;7812;50.072;7.036;2022-08-01T01:19:45;17.80;99.90
15426;DHT22;7812;50.072;7.036;2022-08-01T01:22:25;17.70;99.90
15426;DHT22;7812;50.072;7.036;2022-08-01T01:30:34;17.60;99.90
15426;DHT22;7812;50.072;7.036;2022-08-01T01:33:03;17.50;99.90
15426;DHT22;7812;50.072;7.036;2022-08-01T01:35:36;17.40;99.90
15426;DHT22;7812;50.072;7.036;2022-08-01T01:38:24;17.40;99.90
15426;DHT22;7812;50.072;7.036;2022-08-01T01:40:52;17.40;99.90
15426;DHT22;7812;50.072;7.036;2022-08-01T01:43:19;17.40;99.90
15426;DHT22;7812;50.072;7.036;2022-08-01T01:45:47;17.40;99.90
15426;DHT22;7812;50.072;7.036;2022-08-01T01:48:16;17.40;99.90
15426;DHT22;7812;50.072;7.036;2022-08-01T01:50:46;17.40;99.90
15426;DHT22;7812;50.072;7.036;2022-08-01T01:53:13;17.40;99.90
15426;DHT22;7812;50.072;7.036;2022-08-01T01:55:41;17.40;99.90
15426;DHT22;7812;50.072;7.036;2022-08-01T01:58:12;17.30;99.90
15426;DHT22;7812;50.072;7.036;2022-08-01T02:00:40;17.20;99.90
15426;DHT22;7812;50.072;7.036;2022-08-01T02:03:08;17.20;99.90
15426;DHT22;7812;50.072;7.036;2022-08-01T02:05:36;17.10;99.90
15426;DHT22;7812;50.072;7.036;2022-08-01T02:08:04;17.00;99.90
15426;DHT22;7812;50.072;7.036;2022-08-01T02:10:32;17.00;99.90
15426;DHT22;7812;50.072;7.036;2022-08-01T02:13:02;17.10;99.90
15426;DHT22;7812;50.072;7.036;2022-08-01T02:15:31;17.10;99.90
15426;DHT22;7812;50.072;7.036;2022-08-01T02:17:59;17.10;99.90
15426;DHT22;7812;50.072;7.036;2022-08-01T02:20:29;17.00;99.90
15426;DHT22;7812;50.072;7.036;2022-08-01T02:23:06;16.90;99.90
15426;DHT22;7812;50.072;7.036;2022-08-01T02:25:38;16.90;99.90
15426;DHT22;7812;50.072;7.036;2022-08-01T02:28:07;16.80;99.90
15426;DHT22;7812;50.072;7.036;2022-08-01T02:30:36;16.70;99.90
15426;DHT22;7812;50.072;7.036;2022-08-01T02:33:26;16.60;99.90
15426;DHT22;7812;50.072;7.036;2022-08-01T02:35:58;16.50;99.90
15426;DHT22;7812;50.072;7.036;2022-08-01T02:38:30;16.60;99.90
15426;DHT22;7812;50.072;7.036;2022-08-01T02:41:07;16.70;99.90
15426;DHT22;7812;50.072;7.036;2022-08-01T02:43:37;16.80;99.90
15426;DHT22;7812;50.072;7.036;2022-08-01T02:46:04;16.70;99.90
15426;DHT22;7812;50.072;7.036;2022-08-01T02:48:34;16.70;99.90
15426;DHT22;7812;50.072;7.036;2022-08-01T02:51:02;16.70;99.90
15426;DHT22;7812;50.072;7.036;2022-08-01T02:53:31;16.70;99.90
15426;DHT22;7812;50.072;7.036;2022-08-01T02:56:00;16.60;99.90
15426;DHT22;7812;50.072;7.036;2022-08-01T02:58:28;16.50;99.90
15426;DHT22;7812;50.072;7.036;2022-08-01T03:00:55;16.60;99.90
15426;DHT22;7812;50.072;7.036;2022-08-01T03:03:21;16.60;99.90
15426;DHT22;7812;50.072;7.036;2022-08-01T03:05:48;16.50;99.90
15426;DHT22;7812;50.072;7.036;2022-08-01T03:08:16;16.50;99.90
15426;DHT22;7812;50.072;7.036;2022-08-01T03:10:44;16.50;99.90
15426;DHT22;7812;50.072;7.036;2022-08-01T03:13:11;16.50;99.90
15426;DHT22;7812;50.072;7.036;2022-08-01T03:15:41;16.50;99.90
15426;DHT22;7812;50.072;7.036;2022-08-01T03:18:08;16.60;99.90
15426;DHT22;7812;50.072;7.036;2022-08-01T03:20:35;16.60;99.90
15426;DHT22;7812;50.072;7.036;2022-08-01T03:23:09;16.70;99.90
15426;DHT22;7812;50.072;7.036;2022-08-01T03:25:38;16.70;99.90
15426;DHT22;7812;50.072;7.036;2022-08-01T03:28:05;16.60;99.90
15426;DHT22;7812;50.072;7.036;2022-08-01T03:30:32;16.60;99.90
15426;DHT22;7812;50.072;7.036;2022-08-01T03:32:59;16.60;99.90
15426;DHT22;7812;50.072;7.036;2022-08-01T03:35:32;16.50;99.90
15426;DHT22;7812;50.072;7.036;2022-08-01T03:38:00;16.60;99.90
15426;DHT22;7812;50.072;7.036;2022-08-01T03:40:36;16.60;99.90
15426;DHT22;7812;50.072;7.036;2022-08-01T03:43:05;16.60;99.90
15426;DHT22;7812;50.072;7.036;2022-08-01T03:45:38;16.50;99.90
15426;DHT22;7812;50.072;7.036;2022-08-01T03:48:16;16.40;99.90
15426;DHT22;7812;50.072;7.036;2022-08-01T03:50:46;16.40;99.90
15426;DHT22;7812;50.072;7.036;2022-08-01T03:53:14;16.30;99.90
15426;DHT22;7812;50.072;7.036;2022-08-01T03:55:42;16.30;99.90
15426;DHT22;7812;50.072;7.036;2022-08-01T03:58:09;16.40;99.90
15426;DHT22;7812;50.072;7.036;2022-08-01T04:00:39;16.40;99.90
15426;DHT22;7812;50.072;7.036;2022-08-01T04:03:07;16.30;99.90
15426;DHT22;7812;50.072;7.036;2022-08-01T04:05:33;16.20;99.90
15426;DHT22;7812;50.072;7.036;2022-08-01T04:07:59;16.20;99.90
15426;DHT22;7812;50.072;7.036;2022-08-01T04:10:28;16.20;99.90
15426;DHT22;7812;50.072;7.036;2022-08-01T04:12:54;16.30;99.90
15426;DHT22;7812;50.072;7.036;2022-08-01T04:15:20;16.40;99.90
15426;DHT22;7812;50.072;7.036;2022-08-01T04:17:47;16.30;99.90
15426;DHT22;7812;50.072;7.036;2022-08-01T04:20:13;16.30;99.90
15426;DHT22;7812;50.072;7.036;2022-08-01T04:22:39;16.40;99.90
15426;DHT22;7812;50.072;7.036;2022-08-01T04:25:12;16.50;99.90
15426;DHT22;7812;50.072;7.036;2022-08-01T04:27:43;16.60;99.90
15426;DHT22;7812;50.072;7.036;2022-08-01T04:30:11;16.70;99.90
15426;DHT22;7812;50.072;7.036;2022-08-01T04:32:39;16.90;99.90
15426;DHT22;7812;50.072;7.036;2022-08-01T04:35:09;17.00;99.90
15426;DHT22;7812;50.072;7.036;2022-08-01T04:37:37;17.10;99.90
15426;DHT22;7812;50.072;7.036;2022-08-01T04:40:06;17.10;99.90
15426;DHT22;7812;50.072;7.036;2022-08-01T04:42:33;17.10;99.90
15426;DHT22;7812;50.072;7.036;2022-08-01T04:44:59;17.20;99.90
15426;DHT22;7812;50.072;7.036;2022-08-01T04:47:26;17.20;99.90
15426;DHT22;7812;50.072;7.036;2022-08-01T04:49:52;17.30;99.90
15426;DHT22;7812;50.072;7.036;2022-08-01T04:52:19;17.40;99.90
15426;DHT22;7812;50.072;7.036;2022-08-01T04:54:45;17.50;99.90
15426;DHT22;7812;50.072;7.036;2022-08-01T04:57:14;17.60;99.90
15426;DHT22;7812;50.072;7.036;2022-08-01T04:59:43;17.60;99.90
15426;DHT22;7812;50.072;7.036;2022-08-01T05:02:10;17.70;99.90
15426;DHT22;7812;50.072;7.036;2022-08-01T05:04:37;17.70;99.90
15426;DHT22;7812;50.072;7.036;2022-08-01T05:07:03;17.70;99.90
15426;DHT22;7812;50.072;7.036;2022-08-01T05:09:30;17.70;99.90
15426;DHT22;7812;50.072;7.036;2022-08-01T05:11:57;17.80;99.90
15426;DHT22;7812;50.072;7.036;2022-08-01T05:14:26;17.90;99.90
15426;DHT22;7812;50.072;7.036;2022-08-01T05:16:52;18.00;99.90
15426;DHT22;7812;50.072;7.036;2022-08-01T05:19:19;18.00;99.90
15426;DHT22;7812;50.072;7.036;2022-08-01T05:21:44;18.00;99.90
15426;DHT22;7812;50.072;7.036;2022-08-01T05:24:10;18.10;99.90
15426;DHT22;7812;50.072;7.036;2022-08-01T05:26:36;18.10;99.90
15426;DHT22;7812;50.072;7.036;2022-08-01T05:29:02;18.00;99.90
15426;DHT22;7812;50.072;7.036;2022-08-01T05:31:28;18.10;99.90
15426;DHT22;7812;50.072;7.036;2022-08-01T05:33:54;18.10;99.90
15426;DHT22;7812;50.072;7.036;2022-08-01T05:36:20;18.30;99.90
15426;DHT22;7812;50.072;7.036;2022-08-01T05:38:45;18.40;99.90
15426;DHT22;7812;50.072;7.036;2022-08-01T05:41:11;18.40;99.90
15426;DHT22;7812;50.072;7.036;2022-08-01T05:43:37;18.50;99.90
15426;DHT22;7812;50.072;7.036;2022-08-01T05:46:03;18.50;99.90
15426;DHT22;7812;50.072;7.036;2022-08-01T05:48:28;18.50;99.90
15426;DHT22;7812;50.072;7.036;2022-08-01T05:50:55;18.50;99.90
15426;DHT22;7812;50.072;7.036;2022-08-01T05:53:21;18.50;99.90
15426;DHT22;7812;50.072;7.036;2022-08-01T05:55:47;18.60;99.90
15426;DHT22;7812;50.072;7.036;2022-08-01T05:58:13;18.60;99.90
15426;DHT22;7812;50.072;7.036;2022-08-01T06:00:39;18.60;99.90
15426;DHT22;7812;50.072;7.036;2022-08-01T06:03:05;18.70;99.90
15426;DHT22;7812;50.072;7.036;2022-08-01T06:05:30;18.80;99.90
15426;DHT22;7812;50.072;7.036;2022-08-01T06:07:56;18.90;99.90
15426;DHT22;7812;50.072;7.036;2022-08-01T06:10:23;18.90;99.90
15426;DHT22;7812;50.072;7.036;2022-08-01T06:12:49;19.00;99.90
15426;DHT22;7812;50.072;7.036;2022-08-01T06:15:15;19.20;99.90
15426;DHT22;7812;50.072;7.036;2022-08-01T06:17:40;19.40;99.90
15426;DHT22;7812;50.072;7.036;2022-08-01T06:20:07;19.70;99.90
15426;DHT22;7812;50.072;7.036;2022-08-01T06:22:33;19.70;99.90
15426;DHT22;7812;50.072;7.036;2022-08-01T06:24:59;19.70;99.90
15426;DHT22;7812;50.072;7.036;2022-08-01T06:27:24;19.70;99.90
15426;DHT22;7812;50.072;7.036;2022-08-01T06:29:51;19.90;99.90
15426;DHT22;7812;50.072;7.036;2022-08-01T06:32:19;20.10;99.90
15426;DHT22;7812;50.072;7.036;2022-08-01T06:34:45;20.20;99.90
15426;DHT22;7812;50.072;7.036;2022-08-01T06:37:10;20.20;99.90
15426;DHT22;7812;50.072;7.036;2022-08-01T06:39:39;20.20;99.90
15426;DHT22;7812;50.072;7.036;2022-08-01T06:42:04;20.20;99.90
15426;DHT22;7812;50.072;7.036;2022-08-01T06:44:30;20.30;99.90
15426;DHT22;7812;50.072;7.036;2022-08-01T06:46:56;20.20;99.90
15426;DHT22;7812;50.072;7.036;2022-08-01T06:49:24;20.20;99.90
15426;DHT22;7812;50.072;7.036;2022-08-01T06:51:50;20.30;99.90
15426;DHT22;7812;50.072;7.036;2022-08-01T06:54:16;20.40;99.90
15426;DHT22;7812;50.072;7.036;2022-08-01T06:56:42;20.40;99.90
15426;DHT22;7812;50.072;7.036;2022-08-01T06:59:08;20.20;99.90
15426;DHT22;7812;50.072;7.036;2022-08-01T07:01:34;20.10;99.90
15426;DHT22;7812;50.072;7.036;2022-08-01T07:04:00;20.20;99.90
15426;DHT22;7812;50.072;7.036;2022-08-01T07:06:26;20.50;99.90
15426;DHT22;7812;50.072;7.036;2022-08-01T07:08:52;20.70;99.90
15426;DHT22;7812;50.072;7.036;2022-08-01T07:11:19;20.90;99.90
15426;DHT22;7812;50.072;7.036;2022-08-01T07:13:44;21.20;99.90
15426;DHT22;7812;50.072;7.036;2022-08-01T07:16:13;21.30;99.90
15426;DHT22;7812;50.072;7.036;2022-08-01T07:18:40;21.50;99.90
15426;DHT22;7812;50.072;7.036;2022-08-01T07:21:05;21.50;99.90
15426;DHT22;7812;50.072;7.036;2022-08-01T07:23:31;21.60;99.90
15426;DHT22;7812;50.072;7.036;2022-08-01T07:25:57;21.50;99.90
15426;DHT22;7812;50.072;7.036;2022-08-01T07:28:24;21.50;99.90
15426;DHT22;7812;50.072;7.036;2022-08-01T07:30:51;21.90;99.90
15426;DHT22;7812;50.072;7.036;2022-08-01T07:33:16;22.20;99.90
15426;DHT22;7812;50.072;7.036;2022-08-01T07:35:42;22.30;99.90
15426;DHT22;7812;50.072;7.036;2022-08-01T07:38:08;22.20;99.90
15426;DHT22;7812;50.072;7.036;2022-08-01T07:40:33;22.00;99.90
15426;DHT22;7812;50.072;7.036;2022-08-01T07:43:00;21.90;99.90
15426;DHT22;7812;50.072;7.036;2022-08-01T07:45:26;21.80;99.90
15426;DHT22;7812;50.072;7.036;2022-08-01T07:47:52;21.90;99.90
15426;DHT22;7812;50.072;7.036;2022-08-01T07:50:18;22.30;99.90
15426;DHT22;7812;50.072;7.036;2022-08-01T07:52:44;22.60;99.90
15426;DHT22;7812;50.072;7.036;2022-08-01T07:55:11;23.10;99.90
15426;DHT22;7812;50.072;7.036;2022-08-01T07:57:37;23.50;99.90
15426;DHT22;7812;50.072;7.036;2022-08-01T08:00:04;23.60;99.90
15426;DHT22;7812;50.072;7.036;2022-08-01T08:02:31;23.50;99.90
15426;DHT22;7812;50.072;7.036;2022-08-01T08:04:57;23.70;99.90
15426;DHT22;7812;50.072;7.036;2022-08-01T08:07:23;24.40;99.90
15426;DHT22;7812;50.072;7.036;2022-08-01T08:09:49;25.00;99.90
15426;DHT22;7812;50.072;7.036;2022-08-01T08:12:15;25.30;99.90
15426;DHT22;7812;50.072;7.036;2022-08-01T08:14:40;25.30;99.90
15426;DHT22;7812;50.072;7.036;2022-08-01T08:17:06;25.20;99.90
15426;DHT22;7812;50.072;7.036;2022-08-01T08:19:32;25.30;99.90
15426;DHT22;7812;50.072;7.036;2022-08-01T08:22:02;25.40;99.90
15426;DHT22;7812;50.072;7.036;2022-08-01T08:24:27;25.90;99.90
15426;DHT22;7812;50.072;7.036;2022-08-01T08:26:55;25.90;99.90
15426;DHT22;7812;50.072;7.036;2022-08-01T08:29:21;25.90;99.90
15426;DHT22;7812;50.072;7.036;2022-08-01T08:31:49;25.90;99.90
15426;DHT22;7812;50.072;7.036;2022-08-01T08:34:16;26.00;99.90
15426;DHT22;7812;50.072;7.036;2022-08-01T08:36:42;26.00;99.90
15426;DHT22;7812;50.072;7.036;2022-08-01T08:39:07;25.80;99.90
15426;DHT22;7812;50.072;7.036;2022-08-01T08:41:34;25.30;99.90
15426;DHT22;7812;50.072;7.036;2022-08-01T08:44:04;24.90;99.90
15426;DHT22;7812;50.072;7.036;2022-08-01T08:46:31;24.30;99.90
15426;DHT22;7812;50.072;7.036;2022-08-01T08:49:02;23.90;99.90
15426;DHT22;7812;50.072;7.036;2022-08-01T08:51:30;23.90;99.90
15426;DHT22;7812;50.072;7.036;2022-08-01T08:53:58;24.00;99.90
15426;DHT22;7812;50.072;7.036;2022-08-01T08:56:25;23.80;99.90
15426;DHT22;7812;50.072;7.036;2022-08-01T08:58:52;23.60;99.90
15426;DHT22;7812;50.072;7.036;2022-08-01T09:01:18;23.60;99.90
15426;DHT22;7812;50.072;7.036;2022-08-01T09:03:44;23.50;99.90
15426;DHT22;7812;50.072;7.036;2022-08-01T09:06:10;23.50;99.90
15426;DHT22;7812;50.072;7.036;2022-08-01T09:08:36;23.50;99.90
15426;DHT22;7812;50.072;7.036;2022-08-01T09:11:03;23.50;99.90
15426;DHT22;7812;50.072;7.036;2022-08-01T09:13:29;23.60;99.90
15426;DHT22;7812;50.072;7.036;2022-08-01T09:15:55;23.70;99.90
15426;DHT22;7812;50.072;7.036;2022-08-01T09:23:38;23.60;99.90
15426;DHT22;7812;50.072;7.036;2022-08-01T09:26:13;23.60;99.90
15426;DHT22;7812;50.072;7.036;2022-08-01T09:28:41;23.20;99.90
15426;DHT22;7812;50.072;7.036;2022-08-01T09:31:08;23.10;99.90
15426;DHT22;7812;50.072;7.036;2022-08-01T09:33:54;23.00;99.90
15426;DHT22;7812;50.072;7.036;2022-08-01T09:36:25;23.10;99.90
15426;DHT22;7812;50.072;7.036;2022-08-01T09:38:52;23.10;99.90
15426;DHT22;7812;50.072;7.036;2022-08-01T09:41:29;23.30;99.90
15426;DHT22;7812;50.072;7.036;2022-08-01T09:43:56;23.50;99.90
15426;DHT22;7812;50.072;7.036;2022-08-01T09:46:22;24.00;99.90
15426;DHT22;7812;50.072;7.036;2022-08-01T09:48:59;24.70;99.90
15426;DHT22;7812;50.072;7.036;2022-08-01T09:53:55;24.30;99.90
15426;DHT22;7812;50.072;7.036;2022-08-01T09:56:22;24.20;99.90
15426;DHT22;7812;50.072;7.036;2022-08-01T09:58:51;24.30;99.90
15426;DHT22;7812;50.072;7.036;2022-08-01T10:01:20;24.20;99.90
15426;DHT22;7812;50.072;7.036;2022-08-01T10:03:46;24.30;99.90
15426;DHT22;7812;50.072;7.036;2022-08-01T10:06:22;24.60;99.90
15426;DHT22;7812;50.072;7.036;2022-08-01T10:08:48;24.90;99.90
15426;DHT22;7812;50.072;7.036;2022-08-01T10:11:14;25.20;99.90
15426;DHT22;7812;50.072;7.036;2022-08-01T10:13:40;25.50;99.90
15426;DHT22;7812;50.072;7.036;2022-08-01T10:16:06;25.80;99.90
15426;DHT22;7812;50.072;7.036;2022-08-01T10:18:34;26.10;99.90
15426;DHT22;7812;50.072;7.036;2022-08-01T10:21:01;26.30;99.90
15426;DHT22;7812;50.072;7.036;2022-08-01T10:23:33;26.60;99.90
15426;DHT22;7812;50.072;7.036;2022-08-01T10:26:00;27.00;99.90
15426;DHT22;7812;50.072;7.036;2022-08-01T10:28:29;27.80;99.90
15426;DHT22;7812;50.072;7.036;2022-08-01T10:30:57;28.70;99.90
15426;DHT22;7812;50.072;7.036;2022-08-01T10:33:23;29.40;99.90
15426;DHT22;7812;50.072;7.036;2022-08-01T10:35:50;30.30;99.90
15426;DHT22;7812;50.072;7.036;2022-08-01T10:38:17;30.30;99.90
15426;DHT22;7812;50.072;7.036;2022-08-01T10:40:43;30.70;99.90
15426;DHT22;7812;50.072;7.036;2022-08-01T10:43:14;31.20;99.90
15426;DHT22;7812;50.072;7.036;2022-08-01T10:45:43;31.00;99.90
15426;DHT22;7812;50.072;7.036;2022-08-01T10:48:16;31.10;99.90
15426;DHT22;7812;50.072;7.036;2022-08-01T10:50:49;31.10;99.90
15426;DHT22;7812;50.072;7.036;2022-08-01T10:53:21;31.50;99.90
15426;DHT22;7812;50.072;7.036;2022-08-01T10:58:35;31.90;99.90
15426;DHT22;7812;50.072;7.036;2022-08-01T11:01:24;31.80;99.90
15426;DHT22;7812;50.072;7.036;2022-08-01T11:04:07;31.20;99.90
15426;DHT22;7812;50.072;7.036;2022-08-01T11:09:02;32.60;99.90
15426;DHT22;7812;50.072;7.036;2022-08-01T11:11:29;33.30;99.90
15426;DHT22;7812;50.072;7.036;2022-08-01T11:16:34;32.50;99.90
15426;DHT22;7812;50.072;7.036;2022-08-01T11:19:02;30.10;99.90
15426;DHT22;7812;50.072;7.036;2022-08-01T11:27:32;28.10;99.90
15426;DHT22;7812;50.072;7.036;2022-08-01T11:32:52;30.60;99.90
15426;DHT22;7812;50.072;7.036;2022-08-01T11:35:19;29.50;99.90
15426;DHT22;7812;50.072;7.036;2022-08-01T11:37:53;29.30;99.90
15426;DHT22;7812;50.072;7.036;2022-08-01T11:40:26;29.70;99.90
15426;DHT22;7812;50.072;7.036;2022-08-01T11:43:17;29.30;99.90
15426;DHT22;7812;50.072;7.036;2022-08-01T11:48:24;29.20;99.90
15426;DHT22;7812;50.072;7.036;2022-08-01T11:50:52;28.80;99.90
15426;DHT22;7812;50.072;7.036;2022-08-01T11:53:19;28.40;99.90
15426;DHT22;7812;50.072;7.036;2022-08-01T11:55:46;28.20;99.90
15426;DHT22;7812;50.072;7.036;2022-08-01T11:58:20;28.50;99.90
15426;DHT22;7812;50.072;7.036;2022-08-01T12:00:51;28.70;99.90
15426;DHT22;7812;50.072;7.036;2022-08-01T12:03:24;28.30;99.90
15426;DHT22;7812;50.072;7.036;2022-08-01T12:05:50;28.10;99.90
15426;DHT22;7812;50.072;7.036;2022-08-01T12:08:28;28.00;99.90
15426;DHT22;7812;50.072;7.036;2022-08-01T12:10:55;28.50;99.90
15426;DHT22;7812;50.072;7.036;2022-08-01T12:13:21;28.70;99.90
15426;DHT22;7812;50.072;7.036;2022-08-01T12:15:48;28.80;99.90
15426;DHT22;7812;50.072;7.036;2022-08-01T12:18:16;29.30;99.90
15426;DHT22;7812;50.072;7.036;2022-08-01T12:20:44;29.30;99.90
15426;DHT22;7812;50.072;7.036;2022-08-01T12:23:12;29.30;99.90
15426;DHT22;7812;50.072;7.036;2022-08-01T12:25:40;28.90;99.90
15426;DHT22;7812;50.072;7.036;2022-08-01T12:28:07;28.80;99.90
15426;DHT22;7812;50.072;7.036;2022-08-01T12:30:35;28.40;99.90
15426;DHT22;7812;50.072;7.036;2022-08-01T12:33:05;28.00;99.90
15426;DHT22;7812;50.072;7.036;2022-08-01T12:35:32;28.30;99.90
15426;DHT22;7812;50.072;7.036;2022-08-01T12:38:05;29.10;99.90
15426;DHT22;7812;50.072;7.036;2022-08-01T12:40:33;29.60;99.90
15426;DHT22;7812;50.072;7.036;2022-08-01T12:43:05;30.00;99.90
15426;DHT22;7812;50.072;7.036;2022-08-01T12:45:34;30.40;99.90
15426;DHT22;7812;50.072;7.036;2022-08-01T12:48:01;30.20;99.90
15426;DHT22;7812;50.072;7.036;2022-08-01T12:50:30;29.90;99.90
15426;DHT22;7812;50.072;7.036;2022-08-01T12:52:57;29.40;99.90
15426;DHT22;7812;50.072;7.036;2022-08-01T12:55:27;28.40;99.90
15426;DHT22;7812;50.072;7.036;2022-08-01T12:58:10;28.10;99.90
15426;DHT22;7812;50.072;7.036;2022-08-01T13:00:38;28.30;99.90
15426;DHT22;7812;50.072;7.036;2022-08-01T13:03:08;28.40;99.90
15426;DHT22;7812;50.072;7.036;2022-08-01T13:05:50;28.00;99.90
15426;DHT22;7812;50.072;7.036;2022-08-01T13:10:47;28.40;99.90
15426;DHT22;7812;50.072;7.036;2022-08-01T13:13:14;28.10;99.90
15426;DHT22;7812;50.072;7.036;2022-08-01T13:15:42;28.00;99.90
15426;DHT22;7812;50.072;7.036;2022-08-01T13:18:31;27.50;99.90
15426;DHT22;7812;50.072;7.036;2022-08-01T13:21:14;27.70;99.90
15426;DHT22;7812;50.072;7.036;2022-08-01T13:24:04;28.20;99.90
15426;DHT22;7812;50.072;7.036;2022-08-01T13:29:09;27.90;99.90
15426;DHT22;7812;50.072;7.036;2022-08-01T13:31:36;28.30;99.90
15426;DHT22;7812;50.072;7.036;2022-08-01T13:34:02;28.80;99.90
15426;DHT22;7812;50.072;7.036;2022-08-01T13:36:28;28.50;99.90
15426;DHT22;7812;50.072;7.036;2022-08-01T13:38:56;28.30;99.90
15426;DHT22;7812;50.072;7.036;2022-08-01T13:41:41;28.40;99.90
15426;DHT22;7812;50.072;7.036;2022-08-01T13:44:07;28.40;99.90
15426;DHT22;7812;50.072;7.036;2022-08-01T13:46:35;28.10;99.90
15426;DHT22;7812;50.072;7.036;2022-08-01T13:49:01;27.90;99.90
15426;DHT22;7812;50.072;7.036;2022-08-01T13:51:27;27.60;99.90
15426;DHT22;7812;50.072;7.036;2022-08-01T13:53:53;27.40;99.90
15426;DHT22;7812;50.072;7.036;2022-08-01T13:56:19;27.50;99.90
15426;DHT22;7812;50.072;7.036;2022-08-01T13:58:46;27.60;99.90
15426;DHT22;7812;50.072;7.036;2022-08-01T14:01:24;27.50;99.90
15426;DHT22;7812;50.072;7.036;2022-08-01T14:03:53;26.90;99.90
15426;DHT22;7812;50.072;7.036;2022-08-01T14:06:37;26.00;99.90
15426;DHT22;7812;50.072;7.036;2022-08-01T14:09:12;25.00;99.90
15426;DHT22;7812;50.072;7.036;2022-08-01T14:11:38;24.90;99.90
15426;DHT22;7812;50.072;7.036;2022-08-01T14:14:04;25.00;99.90
15426;DHT22;7812;50.072;7.036;2022-08-01T14:16:30;25.00;99.90
15426;DHT22;7812;50.072;7.036;2022-08-01T14:18:55;25.00;99.90
15426;DHT22;7812;50.072;7.036;2022-08-01T14:21:21;24.90;99.90
15426;DHT22;7812;50.072;7.036;2022-08-01T14:23:47;24.60;99.90
15426;DHT22;7812;50.072;7.036;2022-08-01T14:26:13;24.60;99.90
15426;DHT22;7812;50.072;7.036;2022-08-01T14:28:45;24.70;99.90
15426;DHT22;7812;50.072;7.036;2022-08-01T14:31:11;24.60;99.90
15426;DHT22;7812;50.072;7.036;2022-08-01T14:33:37;24.70;99.90
15426;DHT22;7812;50.072;7.036;2022-08-01T14:36:04;24.70;99.90
15426;DHT22;7812;50.072;7.036;2022-08-01T14:38:30;24.60;99.90
15426;DHT22;7812;50.072;7.036;2022-08-01T14:40:56;24.60;99.90
15426;DHT22;7812;50.072;7.036;2022-08-01T14:43:22;24.70;99.90
15426;DHT22;7812;50.072;7.036;2022-08-01T14:45:48;24.70;99.90
15426;DHT22;7812;50.072;7.036;2022-08-01T14:48:18;24.70;99.90
15426;DHT22;7812;50.072;7.036;2022-08-01T14:50:44;24.70;99.90
15426;DHT22;7812;50.072;7.036;2022-08-01T14:53:10;24.80;99.90
15426;DHT22;7812;50.072;7.036;2022-08-01T14:55:36;24.80;99.90
15426;DHT22;7812;50.072;7.036;2022-08-01T14:58:02;24.80;99.90
15426;DHT22;7812;50.072;7.036;2022-08-01T15:00:28;24.70;99.90
15426;DHT22;7812;50.072;7.036;2022-08-01T15:02:54;24.80;99.90
15426;DHT22;7812;50.072;7.036;2022-08-01T15:05:20;24.90;99.90
15426;DHT22;7812;50.072;7.036;2022-08-01T15:07:46;24.90;99.90
15426;DHT22;7812;50.072;7.036;2022-08-01T15:10:12;25.00;99.90
15426;DHT22;7812;50.072;7.036;2022-08-01T15:12:38;25.00;99.90
15426;DHT22;7812;50.072;7.036;2022-08-01T15:15:07;25.00;99.90
15426;DHT22;7812;50.072;7.036;2022-08-01T15:17:33;24.80;99.90
15426;DHT22;7812;50.072;7.036;2022-08-01T15:20:01;24.80;99.90
15426;DHT22;7812;50.072;7.036;2022-08-01T15:22:30;24.80;99.90
15426;DHT22;7812;50.072;7.036;2022-08-01T15:25:02;24.90;99.90
15426;DHT22;7812;50.072;7.036;2022-08-01T15:27:28;24.80;99.90
15426;DHT22;7812;50.072;7.036;2022-08-01T15:29:55;24.80;99.90
15426;DHT22;7812;50.072;7.036;2022-08-01T15:32:21;24.90;99.90
15426;DHT22;7812;50.072;7.036;2022-08-01T15:34:48;25.00;99.90
15426;DHT22;7812;50.072;7.036;2022-08-01T15:37:14;25.20;99.90
15426;DHT22;7812;50.072;7.036;2022-08-01T15:39:42;25.00;99.90
15426;DHT22;7812;50.072;7.036;2022-08-01T15:42:12;25.00;99.90
15426;DHT22;7812;50.072;7.036;2022-08-01T15:44:38;25.00;99.90
15426;DHT22;7812;50.072;7.036;2022-08-01T15:47:05;25.10;99.90
15426;DHT22;7812;50.072;7.036;2022-08-01T15:49:31;24.90;99.90
15426;DHT22;7812;50.072;7.036;2022-08-01T15:51:58;25.00;99.90
15426;DHT22;7812;50.072;7.036;2022-08-01T15:54:23;25.10;99.90
15426;DHT22;7812;50.072;7.036;2022-08-01T15:56:50;25.10;99.90
15426;DHT22;7812;50.072;7.036;2022-08-01T15:59:16;25.10;99.90
15426;DHT22;7812;50.072;7.036;2022-08-01T16:01:42;25.20;99.90
15426;DHT22;7812;50.072;7.036;2022-08-01T16:04:24;25.20;99.90
15426;DHT22;7812;50.072;7.036;2022-08-01T16:06:55;25.40;99.90
15426;DHT22;7812;50.072;7.036;2022-08-01T16:09:24;25.60;99.90
15426;DHT22;7812;50.072;7.036;2022-08-01T16:11:53;25.60;99.90
15426;DHT22;7812;50.072;7.036;2022-08-01T16:14:19;25.80;99.90
15426;DHT22;7812;50.072;7.036;2022-08-01T16:16:48;25.70;99.90
15426;DHT22;7812;50.072;7.036;2022-08-01T16:19:20;25.40;99.90
15426;DHT22;7812;50.072;7.036;2022-08-01T16:21:46;25.40;99.90
15426;DHT22;7812;50.072;7.036;2022-08-01T16:24:12;25.50;99.90
15426;DHT22;7812;50.072;7.036;2022-08-01T16:26:38;25.40;99.90
15426;DHT22;7812;50.072;7.036;2022-08-01T16:29:04;25.30;99.90
15426;DHT22;7812;50.072;7.036;2022-08-01T16:31:33;25.00;99.90
15426;DHT22;7812;50.072;7.036;2022-08-01T16:33:59;25.00;99.90